Time;durP1;ratioP1;P1;durP2;ratioP2;P2;SDS_P1;SDS_P2;PMS_P1;PMS_P2;Temp;Humidity;BMP_temperature;BMP_pressure;BME280_temperature;BME280_humidity;BME280_pressure;Samples;Min_cycle;Max_cycle;Signal;HPM_P1;HPM_P2
2022/12/18 00:00:06;;;;;;;27.60;12.17;;;2.60;95.00;;;;;;5050961;28;20201;-66
2022/12/18 00:02:40;;;;;;;28.20;12.10;;;2.50;95.00;;;;;;5049172;28;20186;-66
2022/12/18 00:05:08;;;;;;;28.23;11.80;;;2.50;95.00;;;;;;5054959;28;20347;-66
2022/12/18 00:07:37;;;;;;;29.37;12.40;;;2.50;95.00;;;;;;5053163;28;20255;-67
2022/12/18 00:10:05;;;;;;;22.97;10.77;;;2.50;95.00;;;;;;5058491;28;20228;-67
2022/12/18 00:12:32;;;;;;;27.90;10.87;;;2.50;95.10;;;;;;5052753;28;20551;-66
2022/12/18 00:14:59;;;;;;;25.60;10.73;;;2.40;95.00;;;;;;5058572;28;20196;-65
2022/12/18 00:17:27;;;;;;;20.50;9.50;;;2.40;95.10;;;;;;5045872;28;20205;-65
2022/12/18 00:19:54;;;;;;;27.57;11.47;;;2.40;95.20;;;;;;5049306;28;20197;-66
2022/12/18 00:22:21;;;;;;;21.77;10.03;;;2.40;95.10;;;;;;5048982;28;20566;-66
2022/12/18 00:24:49;;;;;;;23.93;10.07;;;2.40;95.10;;;;;;5048907;28;20194;-67
2022/12/18 00:27:16;;;;;;;24.17;10.47;;;2.50;95.10;;;;;;5028052;28;20692;-67
2022/12/18 00:29:43;;;;;;;23.57;9.63;;;2.50;95.10;;;;;;5051365;28;20194;-66
2022/12/18 00:32:10;;;;;;;24.97;11.10;;;2.40;95.00;;;;;;5042153;28;20189;-65
2022/12/18 00:34:38;;;;;;;23.07;10.37;;;2.40;94.90;;;;;;5034421;28;20619;-65
2022/12/18 00:37:05;;;;;;;28.97;12.10;;;2.40;95.00;;;;;;5053924;28;20561;-66
2022/12/18 00:39:32;;;;;;;21.80;9.83;;;2.40;95.00;;;;;;5057061;28;20225;-66
2022/12/18 00:44:45;;;;;;;29.40;12.60;;;2.40;95.00;;;;;;5034337;28;20199;-65
2022/12/18 00:47:13;;;;;;;32.93;14.03;;;2.40;94.90;;;;;;5049864;28;20197;-67
2022/12/18 00:49:40;;;;;;;38.90;15.20;;;2.40;94.80;;;;;;5048772;28;20194;-66
2022/12/18 00:52:07;;;;;;;33.90;14.07;;;2.30;94.60;;;;;;5036302;28;20196;-66
2022/12/18 00:54:34;;;;;;;36.13;15.37;;;2.30;94.60;;;;;;5039766;28;20201;-66
2022/12/18 00:57:03;;;;;;;42.00;16.67;;;2.30;94.60;;;;;;5058016;28;20644;-68
2022/12/18 00:59:30;;;;;;;36.37;14.70;;;2.20;94.50;;;;;;5052559;28;20229;-67
2022/12/18 01:01:58;;;;;;;38.33;14.87;;;1.70;94.20;;;;;;5037685;28;20212;-68
2022/12/18 01:04:25;;;;;;;34.67;14.83;;;2.10;94.40;;;;;;5051986;28;20229;-68
2022/12/18 01:06:52;;;;;;;34.03;13.97;;;2.10;94.50;;;;;;5056985;28;20254;-68
2022/12/18 01:09:19;;;;;;;33.63;13.80;;;2.00;94.50;;;;;;5049236;28;20269;-67
2022/12/18 01:11:48;;;;;;;34.00;13.70;;;2.00;94.60;;;;;;5032477;28;20567;-67
2022/12/18 01:14:17;;;;;;;28.50;11.43;;;1.90;94.50;;;;;;5043132;28;20208;-67
2022/12/18 01:16:44;;;;;;;22.93;10.27;;;1.90;94.60;;;;;;5052584;28;20201;-67
2022/12/18 01:19:11;;;;;;;25.53;10.20;;;1.90;94.90;;;;;;5054809;28;20197;-68
2022/12/18 01:21:38;;;;;;;27.70;11.10;;;1.90;94.60;;;;;;5063153;28;20196;-68
2022/12/18 01:24:06;;;;;;;26.87;11.03;;;1.90;94.60;;;;;;5043308;28;20224;-67
2022/12/18 01:26:34;;;;;;;30.00;12.27;;;1.90;94.70;;;;;;5044258;28;20206;-68
2022/12/18 01:29:01;;;;;;;29.50;12.70;;;1.90;94.80;;;;;;5061408;28;20275;-68
2022/12/18 01:31:33;;;;;;;28.47;12.10;;;1.90;94.80;;;;;;5040903;28;20213;-68
2022/12/18 01:34:03;;;;;;;25.53;10.87;;;1.90;94.90;;;;;;5042529;28;20634;-67
2022/12/18 01:36:32;;;;;;;22.97;10.17;;;1.90;95.30;;;;;;5062429;28;20193;-67
2022/12/18 01:39:01;;;;;;;19.17;9.63;;;2.00;95.10;;;;;;5039038;28;20205;-67
2022/12/18 01:42:01;;;;;;;23.13;10.23;;;1.90;95.10;;;;;;5053752;28;20636;-67
2022/12/18 01:45:02;;;;;;;26.43;11.23;;;1.90;95.10;;;;;;5057436;28;20190;-67
2022/12/18 01:47:39;;;;;;;30.47;12.47;;;1.90;95.20;;;;;;4987643;28;20624;-68
2022/12/18 01:50:11;;;;;;;31.63;12.50;;;1.90;95.30;;;;;;5052850;28;20213;-67
2022/12/18 01:52:39;;;;;;;32.30;12.80;;;1.90;95.40;;;;;;5042397;28;20202;-67
2022/12/18 01:55:08;;;;;;;31.53;12.77;;;1.90;95.50;;;;;;5064142;28;20197;-67
2022/12/18 01:57:36;;;;;;;30.60;12.57;;;1.90;95.60;;;;;;5054944;28;20201;-67
2022/12/18 02:00:07;;;;;;;33.63;12.63;;;1.90;95.60;;;;;;5058954;28;20197;-68
2022/12/18 02:02:42;;;;;;;28.80;11.80;;;1.90;95.70;;;;;;5052638;28;20255;-68
2022/12/18 02:05:12;;;;;;;30.57;13.20;;;2.00;95.80;;;;;;5051262;28;20220;-68
2022/12/18 02:07:46;;;;;;;30.70;13.33;;;2.00;95.90;;;;;;5042576;28;20208;-68
2022/12/18 02:10:20;;;;;;;30.60;12.77;;;2.40;96.10;;;;;;5034486;28;20197;-68
2022/12/18 02:12:54;;;;;;;30.60;11.60;;;2.10;96.00;;;;;;5054049;28;20207;-67
2022/12/18 02:15:27;;;;;;;24.33;10.83;;;2.10;96.10;;;;;;5040597;28;20547;-68
2022/12/18 02:18:00;;;;;;;27.03;11.30;;;2.10;96.00;;;;;;5033158;28;20434;-68
2022/12/18 02:20:34;;;;;;;24.27;9.53;;;2.20;96.10;;;;;;5032804;28;20205;-67
2022/12/18 02:23:10;;;;;;;26.23;9.87;;;2.20;96.10;;;;;;5052518;28;20186;-68
2022/12/18 02:25:58;;;;;;;20.57;8.90;;;2.20;96.10;;;;;;5033795;28;20209;-68
2022/12/18 02:28:31;;;;;;;27.43;11.00;;;2.60;96.30;;;;;;5053510;28;20193;-68
2022/12/18 02:31:07;;;;;;;31.20;11.50;;;2.40;96.30;;;;;;5034950;28;20503;-67
2022/12/18 02:33:36;;;;;;;23.60;10.57;;;2.50;96.30;;;;;;5033618;28;20225;-67
2022/12/18 02:36:05;;;;;;;25.10;10.33;;;2.40;96.20;;;;;;5044565;28;20201;-69
2022/12/18 02:38:35;;;;;;;25.87;11.60;;;2.40;96.30;;;;;;5047979;28;20671;-68
2022/12/18 02:41:12;;;;;;;23.27;10.10;;;2.50;96.30;;;;;;5033880;28;20221;-67
2022/12/18 02:43:42;;;;;;;26.77;10.00;;;2.50;96.30;;;;;;5035125;28;20190;-68
2022/12/18 02:46:29;;;;;;;20.63;9.40;;;2.50;96.40;;;;;;5040753;28;20247;-67
2022/12/18 02:49:17;;;;;;;29.63;10.87;;;2.50;96.30;;;;;;5049909;28;20398;-68
2022/12/18 02:51:52;;;;;;;25.50;10.10;;;2.40;96.30;;;;;;5039690;28;20351;-67
2022/12/18 02:54:32;;;;;;;20.67;8.63;;;2.50;96.40;;;;;;5034262;28;20233;-68
2022/12/18 02:57:09;;;;;;;22.63;9.33;;;2.60;96.40;;;;;;5035912;28;20209;-67
2022/12/18 02:59:45;;;;;;;22.03;9.03;;;2.50;96.30;;;;;;5050689;28;20263;-68
2022/12/18 03:02:23;;;;;;;21.77;8.60;;;2.50;96.30;;;;;;5049138;28;20200;-67
2022/12/18 03:04:57;;;;;;;32.53;11.60;;;2.50;96.30;;;;;;5054428;28;20224;-67
2022/12/18 03:07:33;;;;;;;23.03;10.07;;;3.20;96.60;;;;;;5063315;28;20201;-66
2022/12/18 03:10:02;;;;;;;26.27;11.40;;;2.60;96.30;;;;;;5042817;28;20237;-66
2022/12/18 03:12:33;;;;;;;21.60;9.30;;;2.50;96.30;;;;;;5064854;28;20713;-66
2022/12/18 03:15:04;;;;;;;25.57;9.73;;;2.50;96.30;;;;;;5063951;28;20300;-66
2022/12/18 03:17:34;;;;;;;19.33;8.70;;;2.50;96.30;;;;;;5050031;28;20260;-67
2022/12/18 03:20:05;;;;;;;24.70;10.50;;;2.60;96.30;;;;;;5057255;28;20201;-68
2022/12/18 03:22:36;;;;;;;23.20;8.73;;;2.50;96.20;;;;;;5039104;28;20284;-67
2022/12/18 03:25:07;;;;;;;24.70;9.60;;;2.50;96.20;;;;;;5044665;28;20210;-68
2022/12/18 03:27:41;;;;;;;24.67;9.60;;;2.50;96.20;;;;;;5048108;28;20296;-67
2022/12/18 03:30:15;;;;;;;22.20;8.83;;;2.50;96.20;;;;;;5034168;28;20201;-68
2022/12/18 03:32:48;;;;;;;22.00;9.43;;;2.40;96.20;;;;;;5062731;28;20201;-68
2022/12/18 03:35:21;;;;;;;16.43;7.57;;;2.50;96.20;;;;;;5037022;28;20209;-68
2022/12/18 03:37:48;;;;;;;26.73;9.87;;;2.50;96.30;;;;;;5042842;28;20205;-68
2022/12/18 03:40:15;;;;;;;23.40;9.47;;;2.50;96.30;;;;;;5038000;28;20287;-68
2022/12/18 03:42:50;;;;;;;18.03;7.93;;;2.50;96.30;;;;;;5039311;28;20197;-68
2022/12/18 03:45:24;;;;;;;23.20;9.87;;;2.40;96.30;;;;;;5037809;28;20216;-68
2022/12/18 03:48:00;;;;;;;25.10;10.13;;;2.50;96.30;;;;;;5044648;28;20193;-68
2022/12/18 03:50:40;;;;;;;25.57;10.00;;;2.50;96.30;;;;;;5046377;28;20208;-68
2022/12/18 03:53:18;;;;;;;21.40;8.90;;;2.50;96.20;;;;;;5039841;28;20200;-66
2022/12/18 03:55:48;;;;;;;20.00;8.40;;;2.40;96.10;;;;;;5040071;28;20200;-69
2022/12/18 03:58:25;;;;;;;23.97;9.17;;;2.40;96.10;;;;;;5045440;28;20209;-67
2022/12/18 04:01:09;;;;;;;20.90;8.83;;;2.40;96.10;;;;;;5040207;28;20504;-67
2022/12/18 04:03:38;;;;;;;20.90;8.33;;;2.40;96.10;;;;;;5042690;28;20201;-67
2022/12/18 04:06:11;;;;;;;21.70;8.73;;;2.50;96.10;;;;;;5044018;28;20200;-67
2022/12/18 04:08:41;;;;;;;20.67;8.70;;;2.30;95.90;;;;;;5044155;28;20193;-67
2022/12/18 04:11:11;;;;;;;18.47;8.07;;;2.30;95.80;;;;;;5039393;28;20653;-67
2022/12/18 04:13:43;;;;;;;19.27;8.40;;;2.30;95.80;;;;;;5037421;28;20220;-67
2022/12/18 04:16:17;;;;;;;20.60;8.40;;;2.30;95.70;;;;;;5039091;28;20197;-67
2022/12/18 04:18:45;;;;;;;19.83;8.13;;;2.20;95.60;;;;;;5044394;28;20229;-67
2022/12/18 04:21:15;;;;;;;21.20;9.00;;;2.20;95.60;;;;;;5037189;28;20198;-66
2022/12/18 04:23:42;;;;;;;18.90;7.90;;;2.20;95.60;;;;;;5047210;28;20224;-67
2022/12/18 04:26:10;;;;;;;18.03;8.03;;;2.20;95.60;;;;;;5037696;28;20292;-67
2022/12/18 04:28:51;;;;;;;14.87;6.90;;;2.10;95.50;;;;;;5037216;28;20234;-66
2022/12/18 04:31:18;;;;;;;15.10;6.87;;;2.10;95.50;;;;;;5039052;28;20449;-67
2022/12/18 04:33:45;;;;;;;15.73;6.47;;;2.10;95.50;;;;;;5040276;28;20253;-66
2022/12/18 04:36:13;;;;;;;13.33;6.43;;;2.10;95.40;;;;;;5032320;28;20197;-67
2022/12/18 04:38:41;;;;;;;13.30;6.63;;;2.10;95.50;;;;;;5032750;28;20289;-67
2022/12/18 04:41:13;;;;;;;15.10;6.37;;;2.10;95.40;;;;;;5041158;28;20448;-67
2022/12/18 04:43:41;;;;;;;13.90;5.70;;;2.10;95.30;;;;;;5040072;28;20296;-67
2022/12/18 04:46:10;;;;;;;11.77;5.50;;;2.20;95.40;;;;;;5050774;28;20701;-68
2022/12/18 04:48:38;;;;;;;10.83;5.30;;;2.20;95.40;;;;;;5049442;28;20236;-68
2022/12/18 04:51:06;;;;;;;8.77;4.50;;;2.20;95.30;;;;;;5050363;28;20205;-68
2022/12/18 04:53:33;;;;;;;11.03;5.73;;;2.20;95.20;;;;;;5048660;28;20220;-68
2022/12/18 04:56:05;;;;;;;10.77;5.13;;;2.20;95.10;;;;;;5049632;28;20267;-67
2022/12/18 04:58:32;;;;;;;10.90;5.40;;;2.20;95.10;;;;;;5050118;28;20293;-68
2022/12/18 05:00:59;;;;;;;10.93;5.83;;;2.30;95.00;;;;;;5049814;28;20205;-68
2022/12/18 05:03:28;;;;;;;10.17;5.80;;;2.20;94.90;;;;;;5048469;28;20744;-68
2022/12/18 05:05:55;;;;;;;9.37;4.87;;;2.20;95.00;;;;;;5048859;28;20190;-68
2022/12/18 05:08:22;;;;;;;11.43;5.77;;;2.30;94.90;;;;;;5049396;28;20202;-68
2022/12/18 05:10:49;;;;;;;9.97;4.93;;;2.30;94.80;;;;;;5049060;28;20269;-68
2022/12/18 05:13:16;;;;;;;10.30;4.90;;;2.30;94.80;;;;;;5052235;28;20203;-68
2022/12/18 05:15:44;;;;;;;13.37;5.43;;;2.30;95.00;;;;;;5049354;28;20209;-67
2022/12/18 05:18:11;;;;;;;9.63;4.83;;;2.30;94.60;;;;;;5035659;28;20224;-68
2022/12/18 05:20:39;;;;;;;10.27;5.03;;;2.30;94.60;;;;;;5038194;28;20719;-68
2022/12/18 05:23:06;;;;;;;13.07;5.30;;;2.40;94.60;;;;;;5033840;28;20729;-68
2022/12/18 05:25:33;;;;;;;11.27;4.77;;;2.30;94.70;;;;;;5060045;28;20545;-68
2022/12/18 05:28:01;;;;;;;9.90;4.60;;;2.30;94.50;;;;;;5056780;28;20543;-67
2022/12/18 05:30:28;;;;;;;9.10;5.00;;;2.20;94.50;;;;;;5066618;28;20219;-67
2022/12/18 05:32:55;;;;;;;11.23;5.60;;;2.30;94.50;;;;;;5065355;28;20197;-67
2022/12/18 05:35:22;;;;;;;10.07;4.80;;;2.30;94.50;;;;;;5048962;28;20205;-66
2022/12/18 05:37:51;;;;;;;10.33;4.70;;;2.30;94.50;;;;;;5054940;28;20267;-67
2022/12/18 05:40:18;;;;;;;7.73;4.33;;;2.30;94.40;;;;;;5036082;28;20630;-67
2022/12/18 05:42:45;;;;;;;8.73;4.73;;;2.30;94.40;;;;;;5061928;28;20204;-66
2022/12/18 05:45:12;;;;;;;9.00;5.00;;;2.30;94.30;;;;;;5058845;28;20304;-66
2022/12/18 05:47:39;;;;;;;10.30;4.67;;;2.30;94.40;;;;;;5057378;28;20658;-66
2022/12/18 05:50:08;;;;;;;6.90;4.40;;;2.30;94.30;;;;;;5051627;28;20336;-67
2022/12/18 05:52:35;;;;;;;9.10;4.60;;;2.20;94.20;;;;;;5062576;28;20216;-68
2022/12/18 05:55:04;;;;;;;9.60;4.63;;;2.20;94.20;;;;;;5034371;28;20705;-67
2022/12/18 05:57:31;;;;;;;7.70;4.70;;;2.20;94.20;;;;;;5053601;28;20220;-68
2022/12/18 05:59:58;;;;;;;11.10;5.43;;;2.20;94.10;;;;;;5049760;28;20436;-68
2022/12/18 06:02:25;;;;;;;10.23;4.83;;;2.30;94.20;;;;;;5048987;28;20944;-67
2022/12/18 06:04:52;;;;;;;7.33;4.27;;;2.20;94.10;;;;;;5048219;28;20221;-68
2022/12/18 06:07:20;;;;;;;8.37;4.60;;;2.20;94.10;;;;;;5050936;28;20643;-67
2022/12/18 06:09:47;;;;;;;9.27;4.33;;;2.20;94.10;;;;;;5054974;28;20220;-67
2022/12/18 06:12:15;;;;;;;9.37;5.07;;;2.20;94.00;;;;;;5042580;28;20630;-67
2022/12/18 06:14:42;;;;;;;8.57;4.23;;;2.20;94.00;;;;;;5050705;28;20193;-67
2022/12/18 06:17:09;;;;;;;7.43;4.93;;;2.20;93.90;;;;;;5051760;28;20201;-68
2022/12/18 06:19:36;;;;;;;9.40;4.73;;;2.20;93.90;;;;;;5053714;28;20197;-68
2022/12/18 06:22:03;;;;;;;7.97;4.30;;;2.20;93.90;;;;;;5039152;28;20201;-68
2022/12/18 06:24:31;;;;;;;7.33;4.57;;;2.20;93.90;;;;;;5053792;28;20277;-68
2022/12/18 06:26:58;;;;;;;9.47;4.90;;;2.20;93.90;;;;;;5052712;28;20652;-68
2022/12/18 06:29:27;;;;;;;8.37;4.60;;;2.20;93.90;;;;;;5055519;28;20189;-68
2022/12/18 06:31:54;;;;;;;10.53;5.10;;;2.20;93.80;;;;;;5050604;28;20772;-68
2022/12/18 06:34:21;;;;;;;9.83;5.47;;;2.20;93.80;;;;;;5042972;28;20721;-68
2022/12/18 06:36:48;;;;;;;10.10;5.80;;;2.10;93.80;;;;;;5034985;28;20201;-67
2022/12/18 06:39:15;;;;;;;10.23;5.30;;;2.10;93.90;;;;;;5053393;28;20719;-68
2022/12/18 06:41:42;;;;;;;10.33;4.93;;;2.10;93.80;;;;;;5052876;28;20995;-67
2022/12/18 06:44:09;;;;;;;10.93;5.20;;;2.10;93.70;;;;;;5051828;28;20663;-68
2022/12/18 06:46:38;;;;;;;10.20;5.40;;;2.10;93.60;;;;;;5034642;28;20297;-67
2022/12/18 06:49:06;;;;;;;11.07;5.77;;;2.10;93.70;;;;;;5052769;28;20182;-68
2022/12/18 06:51:33;;;;;;;8.63;5.17;;;2.10;93.60;;;;;;5053257;28;20209;-67
2022/12/18 06:54:00;;;;;;;8.53;4.63;;;2.10;93.60;;;;;;5035238;28;20512;-68
2022/12/18 06:56:28;;;;;;;8.03;4.50;;;2.10;93.70;;;;;;5039295;28;20638;-67
2022/12/18 06:58:55;;;;;;;10.50;5.07;;;2.10;93.60;;;;;;5052128;28;20285;-67
2022/12/18 07:01:23;;;;;;;8.87;5.30;;;2.00;93.50;;;;;;5059693;28;20227;-67
2022/12/18 07:03:55;;;;;;;10.27;5.43;;;2.40;93.70;;;;;;5051115;28;20237;-67
2022/12/18 07:06:24;;;;;;;10.97;6.20;;;2.00;93.40;;;;;;5052150;28;20556;-68
2022/12/18 07:08:52;;;;;;;10.07;5.13;;;2.00;93.30;;;;;;5050588;28;20194;-67
2022/12/18 07:11:21;;;;;;;12.43;6.07;;;2.20;93.40;;;;;;5058392;28;20724;-68
2022/12/18 07:13:48;;;;;;;11.60;5.70;;;2.00;93.10;;;;;;5051327;28;20198;-68
2022/12/18 07:16:17;;;;;;;14.40;6.07;;;2.00;93.20;;;;;;5051752;28;20210;-68
2022/12/18 07:18:44;;;;;;;13.73;6.33;;;2.00;93.20;;;;;;5040159;28;20205;-68
2022/12/18 07:21:15;;;;;;;13.00;6.17;;;2.00;93.20;;;;;;5051401;28;20569;-68
2022/12/18 07:23:42;;;;;;;12.83;5.67;;;2.00;93.10;;;;;;5058433;28;20680;-67
2022/12/18 07:26:11;;;;;;;12.53;6.03;;;1.90;93.10;;;;;;5050950;28;20559;-68
2022/12/18 07:28:40;;;;;;;12.37;6.67;;;1.90;93.30;;;;;;5055728;28;20597;-67
2022/12/18 07:31:08;;;;;;;14.93;6.90;;;1.90;92.90;;;;;;5068555;28;20285;-66
2022/12/18 07:33:36;;;;;;;11.20;5.80;;;1.90;93.00;;;;;;5067654;28;20676;-67
2022/12/18 07:36:04;;;;;;;9.77;5.23;;;1.80;93.00;;;;;;5046153;28;20559;-67
2022/12/18 07:38:36;;;;;;;11.77;6.57;;;1.90;93.10;;;;;;5051864;28;20642;-67
2022/12/18 07:41:04;;;;;;;12.00;6.70;;;1.90;92.90;;;;;;5059207;28;20251;-67
2022/12/18 07:43:31;;;;;;;15.57;6.73;;;2.00;92.90;;;;;;5061428;28;20288;-67
2022/12/18 07:45:59;;;;;;;13.37;6.30;;;2.00;92.90;;;;;;5045482;28;20285;-67
2022/12/18 07:48:26;;;;;;;12.80;5.97;;;2.00;92.80;;;;;;5062499;28;20380;-68
2022/12/18 07:50:53;;;;;;;12.77;6.70;;;2.10;92.80;;;;;;5054237;28;20617;-68
2022/12/18 07:53:20;;;;;;;12.70;6.63;;;2.20;92.70;;;;;;5051206;28;20208;-68
2022/12/18 07:55:56;;;;;;;14.30;6.83;;;2.30;92.60;;;;;;5059448;28;20208;-68
2022/12/18 07:58:23;;;;;;;13.70;6.10;;;2.30;92.60;;;;;;5056230;28;20528;-68
2022/12/18 08:00:51;;;;;;;11.27;6.27;;;2.30;92.60;;;;;;5054723;28;20201;-68
2022/12/18 08:03:19;;;;;;;13.17;6.40;;;2.40;92.50;;;;;;5057889;28;20295;-69
2022/12/18 08:05:49;;;;;;;10.80;5.47;;;2.40;92.40;;;;;;5060508;28;21093;-69
2022/12/18 08:08:17;;;;;;;10.50;5.63;;;2.50;92.50;;;;;;5043498;28;20550;-68
2022/12/18 08:10:44;;;;;;;9.90;5.27;;;2.60;92.40;;;;;;5056030;28;20255;-68
2022/12/18 08:13:13;;;;;;;10.73;5.47;;;2.60;92.60;;;;;;5039015;28;20204;-68
2022/12/18 08:15:40;;;;;;;12.00;5.80;;;2.70;92.30;;;;;;5038182;28;20205;-67
2022/12/18 08:18:07;;;;;;;13.30;6.33;;;2.70;92.20;;;;;;5057784;28;20197;-68
2022/12/18 08:20:34;;;;;;;12.83;6.10;;;2.70;92.30;;;;;;5054793;28;20627;-67
2022/12/18 08:23:01;;;;;;;13.70;6.47;;;2.70;92.10;;;;;;5041245;28;20201;-67
2022/12/18 08:25:28;;;;;;;12.67;6.10;;;2.70;92.00;;;;;;5061460;28;20181;-67
2022/12/18 08:27:56;;;;;;;12.53;6.27;;;2.80;92.00;;;;;;5036141;28;20189;-67
2022/12/18 08:30:25;;;;;;;14.83;6.80;;;2.80;92.10;;;;;;5066799;28;20205;-68
2022/12/18 08:32:53;;;;;;;13.03;5.77;;;2.80;91.90;;;;;;5066294;28;20654;-67
2022/12/18 08:35:20;;;;;;;10.07;5.60;;;2.80;91.90;;;;;;5058651;28;20221;-67
2022/12/18 08:37:47;;;;;;;11.20;6.27;;;2.90;91.90;;;;;;5040950;28;20202;-67
2022/12/18 08:40:14;;;;;;;8.07;4.83;;;3.00;92.00;;;;;;5036249;28;20228;-67
2022/12/18 08:45:27;;;;;;;12.23;5.60;;;3.40;91.80;;;;;;5052792;28;20205;-67
2022/12/18 08:47:55;;;;;;;8.80;4.80;;;3.80;91.80;;;;;;5049194;28;20190;-67
2022/12/18 08:50:25;;;;;;;10.97;5.83;;;4.00;91.60;;;;;;5050165;28;20201;-67
2022/12/18 08:52:52;;;;;;;10.30;5.27;;;4.20;91.30;;;;;;5052392;28;20213;-68
2022/12/18 08:55:19;;;;;;;12.63;5.83;;;4.30;90.90;;;;;;5050571;28;20480;-68
2022/12/18 08:57:49;;;;;;;9.47;4.93;;;4.20;90.90;;;;;;5048788;28;20200;-67
2022/12/18 09:00:17;;;;;;;10.30;5.00;;;4.30;90.70;;;;;;5050408;28;20201;-67
2022/12/18 09:02:45;;;;;;;9.20;4.47;;;4.30;90.70;;;;;;5047384;28;20281;-68
2022/12/18 09:05:12;;;;;;;9.67;4.57;;;4.30;90.50;;;;;;5051824;28;20249;-66
2022/12/18 09:07:39;;;;;;;7.20;4.30;;;4.40;90.40;;;;;;5054023;28;20598;-67
2022/12/18 09:10:07;;;;;;;9.47;4.57;;;4.40;90.20;;;;;;5054298;28;20904;-68
2022/12/18 09:12:34;;;;;;;10.47;5.17;;;4.40;90.10;;;;;;5049800;28;20193;-66
2022/12/18 09:15:01;;;;;;;11.37;5.07;;;4.40;89.90;;;;;;5052223;28;21449;-68
2022/12/18 09:17:28;;;;;;;10.40;4.73;;;3.70;89.10;;;;;;5033613;28;20205;-66
2022/12/18 09:19:57;;;;;;;8.23;4.50;;;4.50;90.00;;;;;;5059602;28;20190;-67
2022/12/18 09:22:24;;;;;;;6.27;3.90;;;4.50;89.70;;;;;;5055289;28;20593;-67
2022/12/18 09:24:51;;;;;;;7.00;4.10;;;4.60;89.80;;;;;;5051909;28;20553;-68
2022/12/18 09:27:18;;;;;;;9.03;4.63;;;4.70;89.60;;;;;;5048418;28;20186;-68
2022/12/18 09:29:45;;;;;;;9.40;4.13;;;5.00;89.20;;;;;;5061029;28;20216;-68
2022/12/18 09:32:12;;;;;;;7.73;4.00;;;5.30;88.40;;;;;;5065958;28;20193;-68
2022/12/18 09:34:39;;;;;;;7.33;3.80;;;5.60;87.60;;;;;;5065168;28;20593;-67
2022/12/18 09:37:08;;;;;;;6.13;3.80;;;5.70;87.00;;;;;;5053747;28;20220;-66
2022/12/18 09:39:35;;;;;;;6.50;3.90;;;6.00;86.40;;;;;;5049840;28;20201;-66
2022/12/18 09:42:02;;;;;;;8.30;4.10;;;6.00;85.40;;;;;;5066823;28;20197;-67
2022/12/18 09:44:32;;;;;;;6.30;3.60;;;5.90;84.80;;;;;;5046510;28;20203;-69
2022/12/18 09:47:06;;;;;;;8.53;4.00;;;5.90;84.80;;;;;;5057922;28;20232;-67
2022/12/18 09:49:38;;;;;;;7.70;3.73;;;5.90;84.60;;;;;;5065302;28;20576;-67
2022/12/18 09:52:14;;;;;;;7.77;4.30;;;6.10;83.90;;;;;;5058341;28;20187;-67
2022/12/18 09:54:43;;;;;;;7.43;4.20;;;6.20;82.30;;;;;;5061863;28;20649;-67
2022/12/18 09:57:15;;;;;;;8.07;4.50;;;6.40;81.90;;;;;;5058403;28;20623;-67
2022/12/18 09:59:44;;;;;;;6.83;4.07;;;6.50;80.20;;;;;;5064105;28;20198;-68
2022/12/18 10:02:20;;;;;;;7.57;4.20;;;6.50;80.10;;;;;;5066556;28;20202;-69
2022/12/18 10:05:07;;;;;;;7.57;3.83;;;6.50;79.80;;;;;;5031254;28;20712;-66
2022/12/18 10:07:51;;;;;;;7.73;4.10;;;6.50;79.40;;;;;;5061180;28;20634;-68
2022/12/18 10:10:32;;;;;;;8.53;4.40;;;6.50;78.90;;;;;;5051341;28;20188;-67
2022/12/18 10:13:07;;;;;;;8.40;4.60;;;6.80;79.00;;;;;;5057340;28;20681;-70
2022/12/18 10:15:40;;;;;;;7.60;4.40;;;7.10;78.60;;;;;;5052435;28;20212;-68
2022/12/18 10:18:27;;;;;;;8.20;4.70;;;7.60;77.70;;;;;;5040649;28;20200;-69
2022/12/18 10:20:59;;;;;;;6.77;3.80;;;8.20;76.40;;;;;;5051984;28;20208;-69
2022/12/18 10:23:34;;;;;;;7.60;4.37;;;8.70;74.50;;;;;;5031323;28;20211;-69
2022/12/18 10:26:04;;;;;;;9.13;4.73;;;9.10;72.80;;;;;;5047958;28;20190;-69
2022/12/18 10:28:33;;;;;;;7.30;3.80;;;9.40;71.00;;;;;;5050957;28;20224;-69
2022/12/18 10:31:00;;;;;;;9.03;4.30;;;9.60;69.80;;;;;;5049969;28;20248;-68
2022/12/18 10:33:31;;;;;;;9.43;4.77;;;9.50;69.10;;;;;;5057345;28;20741;-69
2022/12/18 10:35:58;;;;;;;9.47;4.70;;;9.50;68.20;;;;;;5055927;28;20285;-69
2022/12/18 10:38:29;;;;;;;8.07;4.00;;;9.40;67.30;;;;;;5035408;28;20208;-69
2022/12/18 10:40:58;;;;;;;7.10;4.33;;;9.20;67.80;;;;;;5057435;28;20195;-69
2022/12/18 10:43:27;;;;;;;8.43;4.73;;;9.10;67.20;;;;;;5056178;28;20300;-68
2022/12/18 10:46:17;;;;;;;8.70;4.60;;;8.90;65.50;;;;;;5037002;28;20636;-68
2022/12/18 10:48:54;;;;;;;7.70;4.40;;;8.90;65.80;;;;;;5052035;28;20213;-69
2022/12/18 10:51:25;;;;;;;8.73;4.20;;;8.90;65.30;;;;;;5036673;28;20633;-69
2022/12/18 10:54:00;;;;;;;8.30;4.00;;;9.20;65.30;;;;;;5065430;28;20195;-69
2022/12/18 10:56:30;;;;;;;6.67;3.93;;;9.60;65.00;;;;;;5050716;28;20202;-69
2022/12/18 10:59:01;;;;;;;8.90;4.40;;;9.60;63.80;;;;;;5056027;28;20448;-68
2022/12/18 11:01:29;;;;;;;8.00;4.20;;;9.20;62.30;;;;;;5052633;28;20538;-69
2022/12/18 11:04:09;;;;;;;5.57;3.83;;;8.70;62.10;;;;;;5059990;28;20710;-68
2022/12/18 11:06:54;;;;;;;9.47;4.87;;;8.30;62.30;;;;;;5047782;28;20795;-69
2022/12/18 11:09:25;;;;;;;7.80;4.40;;;7.90;62.50;;;;;;5053436;28;20253;-69
2022/12/18 11:11:54;;;;;;;8.47;4.27;;;7.50;62.70;;;;;;5064195;28;20292;-69
2022/12/18 11:14:25;;;;;;;8.57;3.87;;;7.30;63.50;;;;;;5058345;28;20617;-70
2022/12/18 11:16:53;;;;;;;7.27;4.00;;;7.20;64.00;;;;;;5057825;28;20217;-69
2022/12/18 11:19:32;;;;;;;11.27;4.57;;;7.00;64.00;;;;;;5050272;28;20197;-69
2022/12/18 11:22:01;;;;;;;8.10;4.50;;;6.80;64.20;;;;;;5050214;28;20194;-70
2022/12/18 11:24:34;;;;;;;7.80;4.23;;;6.60;64.40;;;;;;5050048;28;20300;-69
2022/12/18 11:27:04;;;;;;;7.10;4.13;;;6.40;64.80;;;;;;5050415;28;20193;-69
2022/12/18 11:29:36;;;;;;;7.23;4.67;;;6.30;64.70;;;;;;5036732;28;20197;-69
2022/12/18 11:32:26;;;;;;;6.23;3.73;;;6.20;64.80;;;;;;5039593;28;20197;-69
2022/12/18 11:35:02;;;;;;;6.70;3.97;;;6.10;64.80;;;;;;5050940;28;20673;-69
2022/12/18 11:37:30;;;;;;;7.77;4.00;;;6.00;65.10;;;;;;5050446;28;20213;-69
2022/12/18 11:40:03;;;;;;;5.37;3.43;;;5.80;65.20;;;;;;5049387;28;20693;-69
2022/12/18 11:42:39;;;;;;;9.20;3.93;;;5.80;65.60;;;;;;5038872;28;20204;-69
2022/12/18 11:45:30;;;;;;;5.63;3.40;;;5.70;65.80;;;;;;5059146;28;20572;-69
2022/12/18 11:48:06;;;;;;;5.83;3.50;;;6.00;66.50;;;;;;5048569;28;20964;-69
2022/12/18 11:50:49;;;;;;;12.67;6.73;;;5.70;66.80;;;;;;5063705;28;20193;-69
2022/12/18 11:53:16;;;;;;;12.00;6.37;;;5.60;66.30;;;;;;5049755;28;20596;-70
2022/12/18 11:55:57;;;;;;;11.60;5.97;;;5.60;66.70;;;;;;5036889;28;20195;-69
2022/12/18 11:58:47;;;;;;;13.80;6.00;;;5.60;66.90;;;;;;5050669;28;20191;-68
2022/12/18 12:01:23;;;;;;;10.07;5.63;;;5.50;66.60;;;;;;5049197;28;20199;-70
2022/12/18 12:04:28;;;;;;;9.60;5.37;;;5.50;67.00;;;;;;5048890;28;20766;-68
2022/12/18 12:07:04;;;;;;;10.10;4.60;;;5.50;67.10;;;;;;5049309;28;20304;-70
2022/12/18 12:09:36;;;;;;;7.53;4.17;;;5.50;67.20;;;;;;5048603;28;20222;-69
2022/12/18 12:12:23;;;;;;;8.33;3.80;;;5.50;66.90;;;;;;5049317;28;20207;-68
2022/12/18 12:14:59;;;;;;;6.87;4.07;;;5.50;66.90;;;;;;5049088;28;20641;-69
2022/12/18 12:17:37;;;;;;;7.70;3.67;;;5.50;67.10;;;;;;5062201;28;20209;-69
2022/12/18 12:20:14;;;;;;;5.60;3.53;;;5.50;67.30;;;;;;5049682;28;20207;-69
2022/12/18 12:22:51;;;;;;;6.03;3.47;;;5.60;67.50;;;;;;5048867;28;20191;-70
2022/12/18 12:25:34;;;;;;;6.67;3.73;;;5.80;67.60;;;;;;5036111;28;20208;-69
2022/12/18 12:28:16;;;;;;;8.53;4.00;;;6.00;67.40;;;;;;5048590;28;20184;-69
2022/12/18 12:30:56;;;;;;;7.23;4.17;;;6.20;66.80;;;;;;5051275;28;21007;-69
2022/12/18 12:33:35;;;;;;;4.87;3.40;;;5.90;65.40;;;;;;5051303;28;20664;-70
2022/12/18 12:36:09;;;;;;;5.97;3.60;;;6.00;65.90;;;;;;5053780;28;20203;-70
2022/12/18 12:38:42;;;;;;;7.97;4.20;;;5.90;66.20;;;;;;5056284;28;20201;-69
2022/12/18 12:43:12;;;;;;;8.87;4.13;;;5.80;66.10;;;;;;5047770;28;20193;-71
2022/12/18 12:44:04;;;;;;;7.10;4.07;;;5.70;66.20;;;;;;5037426;28;20243;-70
2022/12/18 12:46:33;;;;;;;7.60;4.43;;;5.60;65.80;;;;;;5048474;28;20184;-70
2022/12/18 12:49:04;;;;;;;7.60;4.37;;;5.60;65.90;;;;;;5048115;28;20187;-70
2022/12/18 12:51:34;;;;;;;7.93;4.67;;;5.50;66.10;;;;;;5049325;28;20201;-70
2022/12/18 12:54:04;;;;;;;6.97;4.20;;;5.50;66.20;;;;;;5048033;28;20561;-70
2022/12/18 12:56:39;;;;;;;7.43;4.13;;;5.50;66.10;;;;;;5041678;28;20211;-70
2022/12/18 12:59:14;;;;;;;6.70;3.53;;;5.50;65.80;;;;;;5063325;28;20198;-70
2022/12/18 13:01:54;;;;;;;7.60;4.13;;;5.50;65.90;;;;;;5035743;28;20304;-70
2022/12/18 13:04:28;;;;;;;7.20;4.23;;;5.50;66.30;;;;;;5048826;28;20243;-69
2022/12/18 13:07:02;;;;;;;9.67;5.17;;;5.40;65.70;;;;;;5048745;28;20296;-70
2022/12/18 13:09:32;;;;;;;8.07;4.57;;;5.40;65.50;;;;;;5062407;28;20190;-70
2022/12/18 13:14:51;;;;;;;6.17;3.90;;;5.30;65.60;;;;;;5031720;28;20183;-70